createdAt,value
2023-04-02T00:00:35.171Z,1.20
2023-04-02T00:03:05.540Z,1.16
2023-04-02T00:05:45.536Z,1.38
2023-04-02T00:08:22.131Z,1.20
2023-04-02T00:10:58.400Z,1.38
2023-04-02T00:13:41.005Z,1.20
2023-04-02T00:16:09.006Z,1.18
2023-04-02T00:18:37.074Z,1.33
2023-04-02T00:21:36.642Z,1.24
2023-04-02T00:24:13.851Z,1.22
2023-04-02T00:26:46.303Z,1.30
2023-04-02T00:29:14.082Z,1.36
2023-04-02T00:31:48.187Z,1.38
2023-04-02T00:34:36.096Z,1.29
2023-04-02T00:37:02.863Z,1.34
2023-04-02T00:39:30.857Z,1.21
2023-04-02T00:41:58.285Z,1.00
2023-04-02T00:44:24.875Z,1.01
2023-04-02T00:46:51.473Z,1.11
2023-04-02T00:49:32.137Z,1.04
2023-04-02T00:52:00.738Z,1.14
2023-04-02T00:54:29.569Z,1.20
2023-04-02T00:56:56.415Z,0.95
2023-04-02T00:59:33.826Z,1.28
2023-04-02T01:02:16.765Z,1.14
2023-04-02T01:04:43.497Z,1.31
2023-04-02T01:07:10.463Z,1.09
2023-04-02T01:10:00.829Z,1.20
2023-04-02T01:12:51.761Z,1.32
2023-04-02T01:15:24.666Z,1.30
2023-04-02T01:18:13.642Z,1.24
2023-04-02T01:20:59.993Z,1.18
2023-04-02T01:23:53.760Z,1.02
2023-04-02T01:26:43.278Z,1.18
2023-04-02T01:29:31.462Z,1.39
2023-04-02T01:32:02.306Z,1.17
2023-04-02T01:34:29.064Z,1.26
2023-04-02T01:37:27.539Z,1.06
2023-04-02T01:39:59.811Z,1.13
2023-04-02T01:42:32.437Z,1.17
2023-04-02T01:45:13.462Z,1.08
2023-04-02T01:47:40.102Z,1.02
2023-04-02T01:50:27.003Z,1.16
2023-04-02T01:52:56.599Z,1.24
2023-04-02T01:55:42.885Z,1.39
2023-04-02T01:58:10.448Z,1.13
2023-04-02T02:00:37.479Z,1.16
2023-04-02T02:03:04.321Z,1.23
2023-04-02T02:05:30.963Z,1.33
2023-04-02T02:07:57.782Z,1.17
2023-04-02T02:10:27.540Z,1.45
2023-04-02T02:12:54.464Z,1.28
2023-04-02T02:15:22.535Z,1.25
2023-04-02T02:17:49.220Z,1.16
2023-04-02T02:20:16.000Z,1.26
2023-04-02T02:22:49.473Z,1.22
2023-04-02T02:25:26.986Z,1.34
2023-04-02T02:28:03.574Z,1.22
2023-04-02T02:30:44.793Z,1.32
2023-04-02T02:33:18.974Z,1.27
2023-04-02T02:35:59.731Z,1.30
2023-04-02T02:38:42.528Z,1.31
2023-04-02T02:41:24.300Z,1.36
2023-04-02T02:44:09.160Z,1.35
2023-04-02T02:46:37.802Z,1.33
2023-04-02T02:49:04.473Z,1.31
2023-04-02T02:51:40.468Z,1.38
2023-04-02T02:54:07.093Z,1.21
2023-04-02T02:56:34.665Z,1.43
2023-04-02T02:59:01.331Z,1.40
2023-04-02T03:01:29.376Z,1.22
2023-04-02T03:03:56.089Z,1.26
2023-04-02T03:06:22.799Z,1.40
2023-04-02T03:08:57.833Z,1.35
2023-04-02T03:11:38.769Z,1.34
2023-04-02T03:14:23.199Z,1.33
2023-04-02T03:16:51.529Z,1.32
2023-04-02T03:19:32.796Z,1.37
2023-04-02T03:22:06.724Z,1.56
2023-04-02T03:24:41.636Z,1.35
2023-04-02T03:27:28.250Z,1.34
2023-04-02T03:30:00.576Z,1.49
2023-04-02T03:32:32.629Z,1.40
2023-04-02T03:35:10.167Z,1.41
2023-04-02T03:37:41.000Z,1.49
2023-04-02T03:40:10.965Z,1.46
2023-04-02T03:42:41.439Z,1.31
2023-04-02T03:45:26.949Z,1.53
2023-04-02T03:48:00.652Z,1.50
2023-04-02T03:50:35.959Z,1.36
2023-04-02T03:53:03.159Z,1.45
2023-04-02T03:55:31.596Z,1.44
2023-04-02T03:58:16.404Z,1.55
2023-04-02T04:01:15.324Z,1.72
2023-04-02T04:03:43.503Z,1.64
2023-04-02T04:06:26.549Z,1.52
2023-04-02T04:09:12.779Z,1.54
2023-04-02T04:11:43.976Z,1.51
2023-04-02T04:14:33.271Z,1.59
2023-04-02T04:17:08.487Z,1.68
2023-04-02T04:19:58.176Z,1.91
2023-04-02T04:22:28.400Z,1.60
2023-04-02T04:24:55.063Z,1.71
2023-04-02T04:27:44.085Z,1.57
2023-04-02T04:30:32.448Z,1.70
2023-04-02T04:33:02.693Z,1.77
2023-04-02T04:35:38.982Z,1.76
2023-04-02T04:38:07.998Z,1.74
2023-04-02T04:40:36.394Z,1.63
2023-04-02T04:43:14.914Z,1.70
2023-04-02T04:45:54.322Z,1.60
2023-04-02T04:48:37.706Z,1.85
2023-04-02T04:51:07.326Z,1.82
2023-04-02T04:53:33.929Z,1.83
2023-04-02T04:56:12.566Z,1.63
2023-04-02T04:58:54.397Z,1.61
2023-04-02T05:01:27.992Z,1.77
2023-04-02T05:03:59.582Z,1.51
2023-04-02T05:06:36.072Z,1.78
2023-04-02T05:09:24.733Z,1.81
2023-04-02T05:12:02.316Z,1.90
2023-04-02T05:14:42.964Z,1.69
2023-04-02T05:17:11.976Z,1.73
2023-04-02T05:19:44.398Z,1.83
2023-04-02T05:22:25.704Z,1.72
2023-04-02T05:24:56.826Z,1.86
2023-04-02T05:27:39.945Z,1.95
2023-04-02T05:30:14.377Z,1.90
2023-04-02T05:32:50.410Z,1.95
2023-04-02T05:35:18.183Z,1.96
2023-04-02T05:37:44.919Z,1.64
2023-04-02T05:40:20.089Z,1.93
2023-04-02T05:42:48.759Z,2.07
2023-04-02T05:45:35.280Z,2.00
2023-04-02T05:48:04.378Z,2.05
2023-04-02T05:50:35.926Z,2.02
2023-04-02T05:53:21.052Z,2.14
2023-04-02T05:56:11.703Z,2.08
2023-04-02T05:58:46.409Z,2.10
2023-04-02T06:01:31.808Z,2.10
2023-04-02T06:04:22.456Z,1.90
2023-04-02T06:06:59.703Z,2.18
2023-04-02T06:09:58.627Z,2.23
2023-04-02T06:12:28.194Z,2.15
2023-04-02T06:14:54.792Z,2.10
2023-04-02T06:17:21.703Z,2.19
2023-04-02T06:19:48.512Z,2.32
2023-04-02T06:22:37.953Z,2.07
2023-04-02T06:25:15.884Z,2.11
2023-04-02T06:27:42.572Z,2.13
2023-04-02T06:30:14.302Z,2.24
2023-04-02T06:32:40.982Z,2.37
2023-04-02T06:35:12.546Z,2.46
2023-04-02T06:37:40.095Z,2.39
2023-04-02T06:40:14.338Z,2.26
2023-04-02T06:42:41.021Z,2.37
2023-04-02T06:45:14.311Z,2.44
2023-04-02T06:47:44.537Z,2.83
2023-04-02T06:50:25.582Z,2.39
2023-04-02T06:53:05.126Z,2.18
2023-04-02T06:55:33.024Z,2.39
2023-04-02T06:57:59.816Z,2.57
2023-04-02T07:00:34.375Z,2.70
2023-04-02T07:03:01.221Z,2.23
2023-04-02T07:05:27.925Z,2.07
2023-04-02T07:07:54.588Z,2.31
2023-04-02T07:10:21.214Z,2.36
2023-04-02T07:12:47.829Z,2.03
2023-04-02T07:15:17.858Z,1.91
2023-04-02T07:17:45.107Z,2.23
2023-04-02T07:20:26.099Z,1.91
2023-04-02T07:22:53.018Z,1.91
2023-04-02T07:25:19.619Z,1.93
2023-04-02T07:27:46.211Z,2.06
2023-04-02T07:30:13.029Z,2.20
2023-04-02T07:32:39.624Z,2.44
2023-04-02T07:35:07.172Z,2.21
2023-04-02T07:37:33.772Z,2.35
2023-04-02T07:40:00.421Z,2.13
2023-04-02T07:42:27.087Z,2.22
2023-04-02T07:44:53.753Z,1.98
2023-04-02T07:47:20.353Z,2.15
2023-04-02T07:49:46.950Z,2.25
2023-04-02T07:52:13.551Z,2.28
2023-04-02T07:54:40.201Z,2.23
2023-04-02T07:57:06.876Z,2.36
2023-04-02T07:59:33.559Z,2.35
2023-04-02T08:02:00.230Z,2.27
2023-04-02T08:04:27.016Z,2.54
2023-04-02T08:06:53.643Z,2.43
2023-04-02T08:09:20.280Z,2.43
2023-04-02T08:11:46.954Z,2.31
2023-04-02T08:14:13.731Z,2.67
2023-04-02T08:16:50.384Z,2.25
2023-04-02T08:19:17.144Z,2.26
2023-04-02T08:21:43.787Z,2.05
2023-04-02T08:24:10.456Z,1.83
2023-04-02T08:26:37.161Z,2.02
2023-04-02T08:29:04.094Z,2.09
2023-04-02T08:31:30.720Z,2.07
2023-04-02T08:33:57.319Z,2.05
2023-04-02T08:36:33.178Z,2.13
2023-04-02T08:38:59.879Z,2.05
2023-04-02T08:41:26.892Z,2.71
2023-04-02T08:44:31.814Z,2.19
2023-04-02T08:47:02.085Z,2.51
2023-04-02T08:49:49.045Z,2.25
2023-04-02T08:52:26.178Z,2.37
2023-04-02T08:54:52.835Z,2.59
2023-04-02T08:57:25.399Z,2.30
2023-04-02T08:59:58.149Z,2.42
2023-04-02T09:02:32.261Z,2.29
2023-04-02T09:04:59.073Z,2.24
2023-04-02T09:07:25.731Z,2.51
2023-04-02T09:09:52.400Z,2.42
2023-04-02T09:12:20.678Z,2.57
2023-04-02T09:14:49.911Z,2.18
2023-04-02T09:17:21.531Z,1.74
2023-04-02T09:20:13.483Z,1.90
2023-04-02T09:22:40.102Z,2.02
2023-04-02T09:25:14.435Z,1.93
2023-04-02T09:27:41.047Z,1.93
2023-04-02T09:30:23.770Z,2.06
2023-04-02T09:32:51.815Z,2.05
2023-04-02T09:35:27.020Z,1.91
2023-04-02T09:38:26.856Z,1.69
2023-04-02T09:41:06.164Z,1.45
2023-04-02T09:43:36.832Z,1.46
2023-04-02T09:46:14.116Z,1.59
2023-04-02T09:48:43.537Z,1.42
2023-04-02T09:51:17.137Z,1.32
2023-04-02T09:53:48.320Z,1.41
2023-04-02T09:56:33.467Z,1.26
2023-04-02T09:59:15.236Z,1.60
2023-04-02T10:01:46.151Z,1.78
2023-04-02T10:04:44.476Z,1.42
2023-04-02T10:07:33.917Z,1.24
2023-04-02T10:10:19.258Z,1.50
2023-04-02T10:12:47.656Z,1.59
2023-04-02T10:15:17.066Z,1.67
2023-04-02T10:17:43.733Z,1.74
2023-04-02T10:20:18.781Z,1.53
2023-04-02T10:22:45.768Z,1.54
2023-04-02T10:25:14.737Z,1.52
2023-04-02T10:27:49.447Z,1.41
2023-04-02T10:30:20.756Z,1.48
2023-04-02T10:33:00.292Z,1.38
2023-04-02T10:35:57.375Z,1.39
2023-04-02T10:38:31.208Z,1.58
2023-04-02T10:41:03.571Z,2.18
2023-04-02T10:43:51.525Z,1.59
2023-04-02T10:46:28.275Z,1.56
2023-04-02T10:49:16.363Z,1.67
2023-04-02T10:51:58.698Z,1.90
2023-04-02T10:54:37.371Z,2.16
2023-04-02T10:57:10.080Z,1.97
2023-04-02T10:59:38.670Z,2.23
2023-04-02T11:02:22.996Z,2.26
2023-04-02T11:04:49.688Z,2.00
2023-04-02T11:07:21.371Z,1.99
2023-04-02T11:09:52.711Z,2.03
2023-04-02T11:12:43.313Z,2.35
2023-04-02T11:15:16.488Z,2.22
2023-04-02T11:17:44.452Z,2.19
2023-04-02T11:20:48.272Z,2.02
2023-04-02T11:23:19.396Z,2.03
2023-04-02T11:25:46.017Z,2.18
2023-04-02T11:28:26.748Z,2.34
2023-04-02T11:30:54.526Z,2.10
2023-04-02T11:33:37.657Z,2.54
2023-04-02T11:36:43.913Z,2.33
2023-04-02T11:39:17.069Z,19.78
2023-04-02T11:42:04.070Z,10.82
2023-04-02T11:44:30.684Z,1.56
2023-04-02T11:47:15.959Z,1.76
2023-04-02T11:49:54.859Z,1.36
2023-04-02T11:52:32.836Z,1.17
2023-04-02T11:55:38.136Z,1.57
2023-04-02T11:58:35.496Z,1.65
2023-04-02T12:01:24.410Z,1.92
2023-04-02T12:04:09.416Z,1.79
2023-04-02T12:06:47.693Z,1.71
2023-04-02T12:09:31.398Z,1.83
2023-04-02T12:11:59.451Z,2.32
2023-04-02T12:14:37.905Z,2.05
2023-04-02T12:17:07.701Z,2.14
2023-04-02T12:19:36.134Z,2.01
2023-04-02T12:22:02.788Z,1.77
2023-04-02T12:24:29.416Z,1.84
2023-04-02T12:27:09.713Z,2.42
2023-04-02T12:29:39.036Z,2.69
2023-04-02T12:32:05.678Z,2.78
2023-04-02T12:34:32.418Z,2.08
2023-04-02T12:37:01.065Z,2.09
2023-04-02T12:39:28.569Z,2.03
2023-04-02T12:41:55.656Z,1.81
2023-04-02T12:44:24.530Z,1.81
2023-04-02T12:46:51.264Z,1.32
2023-04-02T12:49:39.606Z,1.61
2023-04-02T12:52:13.404Z,1.66
2023-04-02T12:54:57.192Z,2.76
2023-04-02T12:57:27.636Z,1.20
2023-04-02T12:59:55.351Z,1.17
2023-04-02T13:02:23.507Z,1.09
2023-04-02T13:04:55.073Z,1.34
2023-04-02T13:07:23.838Z,1.26
2023-04-02T13:09:54.316Z,1.34
2023-04-02T13:12:30.170Z,1.31
2023-04-02T13:14:57.258Z,1.60
2023-04-02T13:17:41.635Z,1.85
2023-04-02T13:20:27.601Z,1.65
2023-04-02T13:22:54.218Z,1.86
2023-04-02T13:25:23.586Z,1.39
2023-04-02T13:27:50.262Z,2.83
2023-04-02T13:30:20.800Z,2.13
2023-04-02T13:32:47.552Z,1.80
2023-04-02T13:35:14.269Z,2.15
2023-04-02T13:37:40.975Z,1.50
2023-04-02T13:40:09.381Z,1.38
2023-04-02T13:42:36.040Z,1.31
2023-04-02T13:45:02.747Z,1.24
2023-04-02T13:47:29.437Z,1.25
2023-04-02T13:49:56.034Z,1.44
2023-04-02T13:52:22.741Z,1.03
2023-04-02T13:54:50.689Z,1.22
2023-04-02T13:57:17.806Z,1.32
2023-04-02T13:59:44.451Z,1.35
2023-04-02T14:02:16.291Z,1.32
2023-04-02T14:04:44.937Z,1.00
2023-04-02T14:07:18.362Z,1.07
2023-04-02T14:10:00.234Z,1.16
2023-04-02T14:12:29.419Z,0.96
2023-04-02T14:15:02.979Z,1.28
2023-04-02T14:17:42.719Z,1.28
2023-04-02T14:20:26.732Z,0.79
2023-04-02T14:23:05.416Z,0.53
2023-04-02T14:26:18.000Z,0.43
2023-04-02T14:28:50.687Z,0.54
2023-04-02T14:31:26.020Z,0.54
2023-04-02T14:34:21.234Z,0.67
2023-04-02T14:36:56.213Z,0.65
2023-04-02T14:39:36.505Z,0.70
2023-04-02T14:42:18.440Z,0.74
2023-04-02T14:44:50.769Z,1.39
2023-04-02T14:47:47.779Z,0.74
2023-04-02T14:50:19.969Z,0.76
2023-04-02T14:52:48.000Z,0.62
2023-04-02T14:55:25.149Z,0.56
2023-04-02T14:57:52.116Z,0.50
2023-04-02T15:00:39.960Z,0.47
2023-04-02T15:03:06.727Z,0.64
2023-04-02T15:05:42.883Z,0.67
2023-04-02T15:08:19.489Z,0.59
2023-04-02T15:11:06.624Z,0.59
2023-04-02T15:13:56.211Z,0.76
2023-04-02T15:16:23.951Z,0.62
2023-04-02T15:18:53.233Z,0.39
2023-04-02T15:21:19.761Z,0.63
2023-04-02T15:23:51.364Z,0.70
2023-04-02T15:26:29.733Z,0.62
2023-04-02T15:29:28.982Z,0.64
2023-04-02T15:32:34.647Z,0.67
2023-04-02T15:35:20.315Z,1.03
2023-04-02T15:38:08.930Z,0.60
2023-04-02T15:40:57.269Z,0.84
2023-04-02T15:43:31.649Z,1.00
2023-04-02T15:46:21.788Z,1.08
2023-04-02T15:48:57.422Z,1.33
2023-04-02T15:51:34.020Z,1.12
2023-04-02T15:54:37.524Z,0.91
2023-04-02T15:57:45.758Z,0.91
2023-04-02T16:00:23.834Z,0.67
2023-04-02T16:03:21.301Z,0.71
2023-04-02T16:06:09.995Z,0.72
2023-04-02T16:08:58.274Z,0.77
2023-04-02T16:11:25.251Z,0.80
2023-04-02T16:13:52.512Z,0.71
2023-04-02T16:16:26.076Z,0.60
2023-04-02T16:18:59.110Z,0.71
2023-04-02T16:21:31.577Z,0.76
2023-04-02T16:23:58.238Z,0.65
2023-04-02T16:26:33.747Z,0.63
2023-04-02T16:29:47.429Z,0.67
2023-04-02T16:32:37.677Z,0.70
2023-04-02T16:35:42.764Z,0.59
2023-04-02T16:38:37.896Z,0.50
2023-04-02T16:41:22.812Z,0.76
2023-04-02T16:43:55.445Z,0.65
2023-04-02T16:46:39.322Z,0.67
2023-04-02T16:49:34.407Z,0.70
2023-04-02T16:52:22.548Z,0.66
2023-04-02T16:54:57.966Z,0.78
2023-04-02T16:57:33.116Z,0.89
2023-04-02T17:00:20.955Z,0.95
2023-04-02T17:02:53.516Z,1.06
2023-04-02T17:05:32.882Z,0.99
2023-04-02T17:08:22.259Z,0.88
2023-04-02T17:10:55.718Z,0.93
2023-04-02T17:13:42.044Z,1.08
2023-04-02T17:16:26.241Z,1.50
2023-04-02T17:18:53.560Z,1.24
2023-04-02T17:21:23.808Z,1.09
2023-04-02T17:23:58.117Z,1.05
2023-04-02T17:26:27.021Z,0.96
2023-04-02T17:28:53.834Z,1.23
2023-04-02T17:31:23.800Z,0.92
2023-04-02T17:33:52.915Z,1.07
2023-04-02T17:36:28.138Z,0.91
2023-04-02T17:39:00.563Z,1.11
2023-04-02T17:41:32.960Z,1.10
2023-04-02T17:44:02.349Z,1.06
2023-04-02T17:46:38.065Z,1.30
2023-04-02T17:49:20.631Z,1.26
2023-04-02T17:52:10.453Z,1.17
2023-04-02T17:55:10.665Z,1.31
2023-04-02T17:57:40.440Z,1.43
2023-04-02T18:00:33.129Z,1.21
2023-04-02T18:02:59.848Z,1.22
2023-04-02T18:05:46.060Z,1.27
2023-04-02T18:08:54.106Z,1.29
2023-04-02T18:11:41.935Z,1.39
2023-04-02T18:14:35.974Z,1.16
2023-04-02T18:17:21.300Z,1.43
2023-04-02T18:19:56.130Z,1.39
2023-04-02T18:22:27.812Z,1.92
2023-04-02T18:25:00.667Z,1.90
2023-04-02T18:27:30.632Z,1.78
2023-04-02T18:30:26.136Z,1.89
2023-04-02T18:33:23.274Z,1.86
2023-04-02T18:35:59.000Z,2.01
2023-04-02T18:38:37.204Z,2.92
2023-04-02T18:41:28.614Z,3.25
2023-04-02T18:44:40.483Z,2.46
2023-04-02T18:47:42.220Z,2.42
2023-04-02T18:50:15.937Z,2.54
2023-04-02T18:52:42.586Z,2.71
2023-04-02T18:55:20.691Z,2.61
2023-04-02T18:57:49.722Z,2.99
2023-04-02T19:00:29.707Z,3.29
2023-04-02T19:03:17.819Z,2.51
2023-04-02T19:05:49.169Z,2.75
2023-04-02T19:08:25.929Z,2.68
2023-04-02T19:10:54.280Z,2.84
2023-04-02T19:13:20.966Z,2.83
2023-04-02T19:15:56.333Z,2.89
2023-04-02T19:18:29.771Z,2.80
2023-04-02T19:20:57.733Z,2.65
2023-04-02T19:23:40.026Z,2.88
2023-04-02T19:26:14.080Z,2.81
2023-04-02T19:28:45.198Z,2.77
2023-04-02T19:31:24.903Z,2.54
2023-04-02T19:34:14.883Z,1.98
2023-04-02T19:36:50.866Z,1.81
2023-04-02T19:39:28.496Z,2.04
2023-04-02T19:42:21.521Z,1.79
2023-04-02T19:44:49.704Z,2.17
2023-04-02T19:47:19.171Z,2.14
2023-04-02T19:49:45.769Z,2.07
2023-04-02T19:52:12.388Z,1.95
2023-04-02T19:54:39.133Z,1.80
2023-04-02T19:57:05.804Z,1.74
2023-04-02T19:59:32.610Z,1.99
2023-04-02T20:01:59.267Z,1.70
2023-04-02T20:04:26.126Z,1.65
2023-04-02T20:06:52.799Z,1.77
2023-04-02T20:09:19.401Z,2.27
2023-04-02T20:11:46.100Z,1.94
2023-04-02T20:14:12.758Z,1.66
2023-04-02T20:16:39.535Z,1.60
2023-04-02T20:19:06.203Z,1.52
2023-04-02T20:21:32.826Z,1.68
2023-04-02T20:23:59.480Z,2.07
2023-04-02T20:26:26.117Z,2.20
2023-04-02T20:28:52.770Z,2.35
2023-04-02T20:31:22.463Z,2.15
2023-04-02T20:33:49.326Z,2.57
2023-04-02T20:36:16.571Z,2.41
2023-04-02T20:38:43.325Z,2.32
2023-04-02T20:41:10.149Z,2.27
2023-04-02T20:43:36.892Z,2.37
2023-04-02T20:46:04.578Z,2.45
2023-04-02T20:48:31.375Z,2.74
2023-04-02T20:50:58.746Z,2.98
2023-04-02T20:53:25.580Z,3.05
2023-04-02T20:55:52.212Z,4.77
2023-04-02T20:58:18.898Z,5.32
2023-04-02T21:00:45.559Z,3.61
2023-04-02T21:03:12.195Z,3.58
2023-04-02T21:05:45.389Z,3.56
2023-04-02T21:08:12.138Z,3.75
2023-04-02T21:10:39.000Z,3.62
2023-04-02T21:13:05.838Z,3.80
2023-04-02T21:15:32.633Z,3.06
2023-04-02T21:18:02.062Z,3.55
2023-04-02T21:20:28.779Z,3.59
2023-04-02T21:22:55.518Z,3.37
2023-04-02T21:25:22.270Z,3.31
2023-04-02T21:27:50.195Z,3.88
2023-04-02T21:30:17.045Z,3.61
2023-04-02T21:32:43.723Z,3.36
2023-04-02T21:35:10.412Z,3.10
2023-04-02T21:37:37.077Z,2.95
2023-04-02T21:40:04.092Z,2.90
2023-04-02T21:42:30.791Z,3.30
2023-04-02T21:44:57.510Z,2.98
2023-04-02T21:47:24.317Z,2.71
2023-04-02T21:49:50.964Z,2.64
2023-04-02T21:52:17.592Z,2.72
2023-04-02T21:54:44.237Z,2.54
2023-04-02T21:57:10.915Z,2.49
2023-04-02T21:59:37.642Z,2.64
2023-04-02T22:02:04.284Z,2.57
2023-04-02T22:04:30.995Z,2.42
2023-04-02T22:06:57.619Z,2.67
2023-04-02T22:09:24.809Z,2.67
2023-04-02T22:11:52.969Z,2.81
2023-04-02T22:14:19.717Z,2.66
2023-04-02T22:16:46.397Z,2.67
2023-04-02T22:19:14.107Z,2.92
2023-04-02T22:21:40.788Z,2.77
2023-04-02T22:24:08.757Z,2.84
2023-04-02T22:26:35.557Z,2.83
2023-04-02T22:29:02.316Z,3.14
2023-04-02T22:31:30.030Z,3.08
2023-04-02T22:33:57.083Z,5.16
2023-04-02T22:36:23.892Z,7.32
2023-04-02T22:38:50.623Z,17.56
2023-04-02T22:41:18.158Z,9.70
2023-04-02T22:43:45.036Z,9.93
2023-04-02T22:46:13.474Z,9.31
2023-04-02T22:48:40.273Z,7.63
2023-04-02T22:51:07.642Z,14.09
2023-04-02T22:53:34.936Z,33.03
2023-04-02T22:56:20.997Z,46.89
2023-04-02T22:58:47.682Z,11.85
2023-04-02T23:01:20.434Z,10.74
2023-04-02T23:03:47.205Z,9.40
2023-04-02T23:06:15.957Z,8.95
2023-04-02T23:08:42.611Z,8.21
2023-04-02T23:11:11.120Z,8.23
2023-04-02T23:13:38.291Z,7.65
2023-04-02T23:16:06.479Z,7.85
2023-04-02T23:18:34.186Z,12.68
2023-04-02T23:21:01.032Z,10.42
2023-04-02T23:23:27.751Z,15.27
2023-04-02T23:26:03.531Z,10.51
2023-04-02T23:28:31.043Z,9.05
2023-04-02T23:30:57.678Z,5.81
2023-04-02T23:33:24.397Z,6.15
2023-04-02T23:35:51.154Z,3.79
2023-04-02T23:38:17.798Z,4.26
2023-04-02T23:40:44.437Z,7.63
2023-04-02T23:43:11.177Z,5.34
2023-04-02T23:45:37.812Z,5.72
2023-04-02T23:48:04.776Z,8.97
2023-04-02T23:50:31.519Z,5.99
2023-04-02T23:52:58.129Z,8.41
2023-04-02T23:55:24.789Z,6.35
2023-04-02T23:57:51.489Z,3.99
